sensor_id;sensor_type;location;lat;lon;timestamp;temperature;humidity
17385;DHT22;8810;48.680;8.894;2023-04-03T00:00:39;3.60;99.90
17385;DHT22;8810;48.680;8.894;2023-04-03T00:03:06;3.60;99.90
17385;DHT22;8810;48.680;8.894;2023-04-03T00:05:33;3.50;99.90
17385;DHT22;8810;48.680;8.894;2023-04-03T00:08:02;3.50;99.90
17385;DHT22;8810;48.680;8.894;2023-04-03T00:10:30;3.50;99.90
17385;DHT22;8810;48.680;8.894;2023-04-03T00:12:56;3.50;99.90
17385;DHT22;8810;48.680;8.894;2023-04-03T00:15:23;3.50;99.90
17385;DHT22;8810;48.680;8.894;2023-04-03T00:17:50;3.50;99.90
17385;DHT22;8810;48.680;8.894;2023-04-03T00:20:17;3.50;99.90
17385;DHT22;8810;48.680;8.894;2023-04-03T00:22:44;3.50;99.90
17385;DHT22;8810;48.680;8.894;2023-04-03T00:25:12;3.50;99.90
17385;DHT22;8810;48.680;8.894;2023-04-03T00:27:39;3.50;99.90
17385;DHT22;8810;48.680;8.894;2023-04-03T00:30:09;3.50;99.90
17385;DHT22;8810;48.680;8.894;2023-04-03T00:32:37;3.50;99.90
17385;DHT22;8810;48.680;8.894;2023-04-03T00:35:04;3.50;99.90
17385;DHT22;8810;48.680;8.894;2023-04-03T00:37:32;3.50;99.90
17385;DHT22;8810;48.680;8.894;2023-04-03T00:39:59;3.40;99.90
17385;DHT22;8810;48.680;8.894;2023-04-03T00:42:27;3.50;99.90
17385;DHT22;8810;48.680;8.894;2023-04-03T00:45:23;3.50;99.90
17385;DHT22;8810;48.680;8.894;2023-04-03T00:47:50;3.50;99.90
17385;DHT22;8810;48.680;8.894;2023-04-03T00:50:18;3.50;99.90
17385;DHT22;8810;48.680;8.894;2023-04-03T00:52:45;3.50;99.90
17385;DHT22;8810;48.680;8.894;2023-04-03T00:55:14;3.40;99.90
17385;DHT22;8810;48.680;8.894;2023-04-03T00:57:43;3.40;99.90
17385;DHT22;8810;48.680;8.894;2023-04-03T01:00:13;3.40;99.90
17385;DHT22;8810;48.680;8.894;2023-04-03T01:02:40;3.30;99.90
17385;DHT22;8810;48.680;8.894;2023-04-03T01:05:07;3.30;99.90
17385;DHT22;8810;48.680;8.894;2023-04-03T01:07:35;3.30;99.90
17385;DHT22;8810;48.680;8.894;2023-04-03T01:10:04;3.30;99.90
17385;DHT22;8810;48.680;8.894;2023-04-03T01:12:35;3.20;99.90
17385;DHT22;8810;48.680;8.894;2023-04-03T01:15:06;3.20;99.90
17385;DHT22;8810;48.680;8.894;2023-04-03T01:17:37;3.30;99.90
17385;DHT22;8810;48.680;8.894;2023-04-03T01:23:30;3.20;99.90
17385;DHT22;8810;48.680;8.894;2023-04-03T01:25:59;3.20;99.90
17385;DHT22;8810;48.680;8.894;2023-04-03T01:28:37;3.20;99.90
17385;DHT22;8810;48.680;8.894;2023-04-03T01:31:16;3.20;99.90
17385;DHT22;8810;48.680;8.894;2023-04-03T01:33:47;3.10;99.90
17385;DHT22;8810;48.680;8.894;2023-04-03T01:36:15;3.10;99.90
17385;DHT22;8810;48.680;8.894;2023-04-03T01:38:42;3.10;99.90
17385;DHT22;8810;48.680;8.894;2023-04-03T01:41:09;3.10;99.90
17385;DHT22;8810;48.680;8.894;2023-04-03T01:43:36;3.00;99.90
17385;DHT22;8810;48.680;8.894;2023-04-03T01:46:03;3.00;99.90
17385;DHT22;8810;48.680;8.894;2023-04-03T01:48:30;3.00;99.90
17385;DHT22;8810;48.680;8.894;2023-04-03T01:50:58;3.00;99.90
17385;DHT22;8810;48.680;8.894;2023-04-03T01:53:25;2.90;99.90
17385;DHT22;8810;48.680;8.894;2023-04-03T01:55:52;2.90;99.90
17385;DHT22;8810;48.680;8.894;2023-04-03T01:58:18;2.90;99.90
17385;DHT22;8810;48.680;8.894;2023-04-03T02:00:45;3.00;99.90
17385;DHT22;8810;48.680;8.894;2023-04-03T02:03:15;2.90;99.90
17385;DHT22;8810;48.680;8.894;2023-04-03T02:05:41;2.90;99.90
17385;DHT22;8810;48.680;8.894;2023-04-03T02:08:10;2.80;99.90
17385;DHT22;8810;48.680;8.894;2023-04-03T02:10:36;2.80;99.90
17385;DHT22;8810;48.680;8.894;2023-04-03T02:13:03;2.80;99.90
17385;DHT22;8810;48.680;8.894;2023-04-03T02:15:30;2.70;99.90
17385;DHT22;8810;48.680;8.894;2023-04-03T02:17:57;2.70;99.90
17385;DHT22;8810;48.680;8.894;2023-04-03T02:20:24;2.60;99.90
17385;DHT22;8810;48.680;8.894;2023-04-03T02:22:51;2.70;99.90
17385;DHT22;8810;48.680;8.894;2023-04-03T02:25:19;2.70;99.90
17385;DHT22;8810;48.680;8.894;2023-04-03T02:27:46;2.70;99.90
17385;DHT22;8810;48.680;8.894;2023-04-03T02:30:13;2.70;99.90
17385;DHT22;8810;48.680;8.894;2023-04-03T02:32:40;2.70;99.90
17385;DHT22;8810;48.680;8.894;2023-04-03T02:35:08;2.70;99.90
17385;DHT22;8810;48.680;8.894;2023-04-03T02:37:35;2.70;99.90
17385;DHT22;8810;48.680;8.894;2023-04-03T02:40:03;2.70;99.90
17385;DHT22;8810;48.680;8.894;2023-04-03T02:42:32;2.70;99.90
17385;DHT22;8810;48.680;8.894;2023-04-03T02:44:59;2.60;99.90
17385;DHT22;8810;48.680;8.894;2023-04-03T02:47:27;2.60;99.90
17385;DHT22;8810;48.680;8.894;2023-04-03T02:49:54;2.60;99.90
17385;DHT22;8810;48.680;8.894;2023-04-03T02:52:21;2.60;99.90
17385;DHT22;8810;48.680;8.894;2023-04-03T02:54:48;2.60;99.90
17385;DHT22;8810;48.680;8.894;2023-04-03T02:57:15;2.60;99.90
17385;DHT22;8810;48.680;8.894;2023-04-03T02:59:43;2.60;99.90
17385;DHT22;8810;48.680;8.894;2023-04-03T03:02:10;2.60;99.90
17385;DHT22;8810;48.680;8.894;2023-04-03T03:04:37;2.60;99.90
17385;DHT22;8810;48.680;8.894;2023-04-03T03:07:04;2.60;99.90
17385;DHT22;8810;48.680;8.894;2023-04-03T03:09:31;2.60;99.90
17385;DHT22;8810;48.680;8.894;2023-04-03T03:11:58;2.60;99.90
17385;DHT22;8810;48.680;8.894;2023-04-03T03:14:25;2.60;99.90
17385;DHT22;8810;48.680;8.894;2023-04-03T03:16:53;2.60;99.90
17385;DHT22;8810;48.680;8.894;2023-04-03T03:19:20;2.60;99.90
17385;DHT22;8810;48.680;8.894;2023-04-03T03:21:47;2.60;99.90
17385;DHT22;8810;48.680;8.894;2023-04-03T03:24:14;2.60;99.90
17385;DHT22;8810;48.680;8.894;2023-04-03T03:26:41;2.60;99.90
17385;DHT22;8810;48.680;8.894;2023-04-03T03:29:08;2.60;99.90
17385;DHT22;8810;48.680;8.894;2023-04-03T03:31:35;2.60;99.90
17385;DHT22;8810;48.680;8.894;2023-04-03T03:34:03;2.60;99.90
17385;DHT22;8810;48.680;8.894;2023-04-03T03:36:30;2.60;99.90
17385;DHT22;8810;48.680;8.894;2023-04-03T03:38:57;2.60;99.90
17385;DHT22;8810;48.680;8.894;2023-04-03T03:41:24;2.60;99.90
17385;DHT22;8810;48.680;8.894;2023-04-03T03:43:50;2.60;99.90
17385;DHT22;8810;48.680;8.894;2023-04-03T03:46:17;2.60;99.90
17385;DHT22;8810;48.680;8.894;2023-04-03T03:48:44;2.60;99.90
17385;DHT22;8810;48.680;8.894;2023-04-03T03:51:12;2.60;99.90
17385;DHT22;8810;48.680;8.894;2023-04-03T03:53:39;2.60;99.90
17385;DHT22;8810;48.680;8.894;2023-04-03T03:56:06;2.60;99.90
17385;DHT22;8810;48.680;8.894;2023-04-03T03:58:33;2.60;99.90
17385;DHT22;8810;48.680;8.894;2023-04-03T04:01:01;2.60;99.90
17385;DHT22;8810;48.680;8.894;2023-04-03T04:03:28;2.50;99.90
17385;DHT22;8810;48.680;8.894;2023-04-03T04:05:55;2.50;99.90
17385;DHT22;8810;48.680;8.894;2023-04-03T04:08:24;2.60;99.90
17385;DHT22;8810;48.680;8.894;2023-04-03T04:10:50;2.50;99.90
17385;DHT22;8810;48.680;8.894;2023-04-03T04:13:17;2.50;99.90
17385;DHT22;8810;48.680;8.894;2023-04-03T04:15:44;2.50;99.90
17385;DHT22;8810;48.680;8.894;2023-04-03T04:18:11;2.50;99.90
17385;DHT22;8810;48.680;8.894;2023-04-03T04:20:38;2.50;99.90
17385;DHT22;8810;48.680;8.894;2023-04-03T04:23:05;2.50;99.90
17385;DHT22;8810;48.680;8.894;2023-04-03T04:25:33;2.50;99.90
17385;DHT22;8810;48.680;8.894;2023-04-03T04:28:00;2.50;99.90
17385;DHT22;8810;48.680;8.894;2023-04-03T04:30:27;2.50;99.90
17385;DHT22;8810;48.680;8.894;2023-04-03T04:32:53;2.50;99.90
17385;DHT22;8810;48.680;8.894;2023-04-03T04:35:20;2.50;99.90
17385;DHT22;8810;48.680;8.894;2023-04-03T04:37:47;2.50;99.90
17385;DHT22;8810;48.680;8.894;2023-04-03T04:40:14;2.50;99.90
17385;DHT22;8810;48.680;8.894;2023-04-03T04:42:42;2.60;99.90
17385;DHT22;8810;48.680;8.894;2023-04-03T04:45:10;2.60;99.90
17385;DHT22;8810;48.680;8.894;2023-04-03T04:47:36;2.60;99.90
17385;DHT22;8810;48.680;8.894;2023-04-03T04:50:04;2.60;99.90
17385;DHT22;8810;48.680;8.894;2023-04-03T04:52:31;2.60;99.90
17385;DHT22;8810;48.680;8.894;2023-04-03T04:54:58;2.60;99.90
17385;DHT22;8810;48.680;8.894;2023-04-03T04:57:25;2.60;99.90
17385;DHT22;8810;48.680;8.894;2023-04-03T04:59:53;2.60;99.90
17385;DHT22;8810;48.680;8.894;2023-04-03T05:02:20;2.60;99.90
17385;DHT22;8810;48.680;8.894;2023-04-03T05:04:47;2.60;99.90
17385;DHT22;8810;48.680;8.894;2023-04-03T05:07:15;2.60;99.90
17385;DHT22;8810;48.680;8.894;2023-04-03T05:09:42;2.60;99.90
17385;DHT22;8810;48.680;8.894;2023-04-03T05:12:09;2.60;99.90
17385;DHT22;8810;48.680;8.894;2023-04-03T05:14:36;2.60;99.90
17385;DHT22;8810;48.680;8.894;2023-04-03T05:17:04;2.60;99.90
17385;DHT22;8810;48.680;8.894;2023-04-03T05:19:31;2.60;99.90
17385;DHT22;8810;48.680;8.894;2023-04-03T05:21:58;2.60;99.90
17385;DHT22;8810;48.680;8.894;2023-04-03T05:24:25;2.60;99.90
17385;DHT22;8810;48.680;8.894;2023-04-03T05:26:51;2.60;99.90
17385;DHT22;8810;48.680;8.894;2023-04-03T05:29:18;2.70;99.90
17385;DHT22;8810;48.680;8.894;2023-04-03T05:31:45;2.60;99.90
17385;DHT22;8810;48.680;8.894;2023-04-03T05:34:13;2.70;99.90
17385;DHT22;8810;48.680;8.894;2023-04-03T05:36:40;2.70;99.90
17385;DHT22;8810;48.680;8.894;2023-04-03T05:39:08;2.70;99.90
17385;DHT22;8810;48.680;8.894;2023-04-03T05:41:34;2.70;99.90
17385;DHT22;8810;48.680;8.894;2023-04-03T05:44:01;2.70;99.90
17385;DHT22;8810;48.680;8.894;2023-04-03T05:46:28;2.70;99.90
17385;DHT22;8810;48.680;8.894;2023-04-03T05:48:55;2.80;99.90
17385;DHT22;8810;48.680;8.894;2023-04-03T05:51:24;2.80;99.90
17385;DHT22;8810;48.680;8.894;2023-04-03T05:53:54;2.80;99.90
17385;DHT22;8810;48.680;8.894;2023-04-03T05:56:21;2.80;99.90
17385;DHT22;8810;48.680;8.894;2023-04-03T05:58:48;2.90;99.90
17385;DHT22;8810;48.680;8.894;2023-04-03T06:01:15;2.90;99.90
17385;DHT22;8810;48.680;8.894;2023-04-03T06:03:42;2.90;99.90
17385;DHT22;8810;48.680;8.894;2023-04-03T06:06:12;3.00;99.90
17385;DHT22;8810;48.680;8.894;2023-04-03T06:08:40;3.00;99.90
17385;DHT22;8810;48.680;8.894;2023-04-03T06:11:09;3.10;99.90
17385;DHT22;8810;48.680;8.894;2023-04-03T06:13:36;3.20;99.90
17385;DHT22;8810;48.680;8.894;2023-04-03T06:16:05;3.20;99.90
17385;DHT22;8810;48.680;8.894;2023-04-03T06:18:32;3.30;99.90
17385;DHT22;8810;48.680;8.894;2023-04-03T06:20:58;3.30;99.90
17385;DHT22;8810;48.680;8.894;2023-04-03T06:23:26;3.40;99.90
17385;DHT22;8810;48.680;8.894;2023-04-03T06:25:54;3.40;99.90
17385;DHT22;8810;48.680;8.894;2023-04-03T06:28:21;3.40;99.90
17385;DHT22;8810;48.680;8.894;2023-04-03T06:30:48;3.40;99.90
17385;DHT22;8810;48.680;8.894;2023-04-03T06:33:15;3.40;99.90
17385;DHT22;8810;48.680;8.894;2023-04-03T06:35:42;3.40;99.90
17385;DHT22;8810;48.680;8.894;2023-04-03T06:38:08;3.40;99.90
17385;DHT22;8810;48.680;8.894;2023-04-03T06:40:36;3.40;99.90
17385;DHT22;8810;48.680;8.894;2023-04-03T06:43:05;3.40;99.90
17385;DHT22;8810;48.680;8.894;2023-04-03T06:45:32;3.40;99.90
17385;DHT22;8810;48.680;8.894;2023-04-03T06:47:59;3.40;99.90
17385;DHT22;8810;48.680;8.894;2023-04-03T06:50:26;3.40;99.90
17385;DHT22;8810;48.680;8.894;2023-04-03T06:52:53;3.50;99.90
17385;DHT22;8810;48.680;8.894;2023-04-03T06:55:20;3.50;99.90
17385;DHT22;8810;48.680;8.894;2023-04-03T06:57:47;3.60;99.90
17385;DHT22;8810;48.680;8.894;2023-04-03T07:00:16;3.60;99.90
17385;DHT22;8810;48.680;8.894;2023-04-03T07:02:43;3.70;99.90
17385;DHT22;8810;48.680;8.894;2023-04-03T07:05:11;3.80;99.90
17385;DHT22;8810;48.680;8.894;2023-04-03T07:07:38;3.90;99.90
17385;DHT22;8810;48.680;8.894;2023-04-03T07:10:07;3.90;99.90
17385;DHT22;8810;48.680;8.894;2023-04-03T07:12:35;4.00;99.90
17385;DHT22;8810;48.680;8.894;2023-04-03T07:15:03;4.10;99.90
17385;DHT22;8810;48.680;8.894;2023-04-03T07:17:32;4.20;99.90
17385;DHT22;8810;48.680;8.894;2023-04-03T07:19:59;4.30;99.90
17385;DHT22;8810;48.680;8.894;2023-04-03T07:22:26;4.40;99.90
17385;DHT22;8810;48.680;8.894;2023-04-03T07:24:53;4.50;99.90
17385;DHT22;8810;48.680;8.894;2023-04-03T07:27:20;4.60;99.90
17385;DHT22;8810;48.680;8.894;2023-04-03T07:29:46;4.60;99.90
17385;DHT22;8810;48.680;8.894;2023-04-03T07:32:14;4.70;99.90
17385;DHT22;8810;48.680;8.894;2023-04-03T07:34:43;4.70;99.90
17385;DHT22;8810;48.680;8.894;2023-04-03T07:37:10;4.80;99.90
17385;DHT22;8810;48.680;8.894;2023-04-03T07:39:37;4.80;99.90
17385;DHT22;8810;48.680;8.894;2023-04-03T07:42:04;4.90;99.90
17385;DHT22;8810;48.680;8.894;2023-04-03T07:44:30;4.90;99.90
17385;DHT22;8810;48.680;8.894;2023-04-03T07:46:58;4.90;99.90
17385;DHT22;8810;48.680;8.894;2023-04-03T07:49:25;4.90;99.90
17385;DHT22;8810;48.680;8.894;2023-04-03T07:51:54;5.00;99.90
17385;DHT22;8810;48.680;8.894;2023-04-03T07:54:21;5.10;99.90
17385;DHT22;8810;48.680;8.894;2023-04-03T07:56:48;5.20;99.90
17385;DHT22;8810;48.680;8.894;2023-04-03T07:59:15;5.30;99.90
17385;DHT22;8810;48.680;8.894;2023-04-03T08:01:42;5.40;99.90
17385;DHT22;8810;48.680;8.894;2023-04-03T08:04:09;5.50;99.90
17385;DHT22;8810;48.680;8.894;2023-04-03T08:06:36;5.60;99.90
17385;DHT22;8810;48.680;8.894;2023-04-03T08:09:04;5.60;99.90
17385;DHT22;8810;48.680;8.894;2023-04-03T08:11:31;5.60;99.90
17385;DHT22;8810;48.680;8.894;2023-04-03T08:13:58;5.70;99.90
17385;DHT22;8810;48.680;8.894;2023-04-03T08:16:25;5.80;99.90
17385;DHT22;8810;48.680;8.894;2023-04-03T08:18:53;6.10;99.90
17385;DHT22;8810;48.680;8.894;2023-04-03T08:21:20;6.30;99.90
17385;DHT22;8810;48.680;8.894;2023-04-03T08:24:01;6.50;99.90
17385;DHT22;8810;48.680;8.894;2023-04-03T08:26:48;6.60;99.90
17385;DHT22;8810;48.680;8.894;2023-04-03T08:29:15;6.80;99.90
17385;DHT22;8810;48.680;8.894;2023-04-03T08:31:44;7.00;99.90
17385;DHT22;8810;48.680;8.894;2023-04-03T08:34:11;7.00;99.90
17385;DHT22;8810;48.680;8.894;2023-04-03T08:36:38;7.10;99.90
17385;DHT22;8810;48.680;8.894;2023-04-03T08:39:05;7.00;99.90
17385;DHT22;8810;48.680;8.894;2023-04-03T08:41:34;7.00;99.90
17385;DHT22;8810;48.680;8.894;2023-04-03T08:44:12;6.90;99.90
17385;DHT22;8810;48.680;8.894;2023-04-03T08:46:59;6.90;99.90
17385;DHT22;8810;48.680;8.894;2023-04-03T08:49:31;6.80;99.90
17385;DHT22;8810;48.680;8.894;2023-04-03T08:52:02;6.80;99.90
17385;DHT22;8810;48.680;8.894;2023-04-03T08:54:33;6.90;99.90
17385;DHT22;8810;48.680;8.894;2023-04-03T08:57:04;7.10;99.90
17385;DHT22;8810;48.680;8.894;2023-04-03T08:59:35;7.40;99.90
17385;DHT22;8810;48.680;8.894;2023-04-03T09:02:17;7.90;99.90
17385;DHT22;8810;48.680;8.894;2023-04-03T09:04:47;8.10;99.90
17385;DHT22;8810;48.680;8.894;2023-04-03T09:07:19;8.20;99.90
17385;DHT22;8810;48.680;8.894;2023-04-03T09:09:48;8.40;99.90
17385;DHT22;8810;48.680;8.894;2023-04-03T09:12:20;8.30;99.90
17385;DHT22;8810;48.680;8.894;2023-04-03T09:14:57;8.20;99.90
17385;DHT22;8810;48.680;8.894;2023-04-03T09:17:36;8.10;99.90
17385;DHT22;8810;48.680;8.894;2023-04-03T09:20:15;7.80;99.90
17385;DHT22;8810;48.680;8.894;2023-04-03T09:22:44;7.60;99.90
17385;DHT22;8810;48.680;8.894;2023-04-03T09:25:14;7.40;99.90
17385;DHT22;8810;48.680;8.894;2023-04-03T09:27:41;7.30;99.90
17385;DHT22;8810;48.680;8.894;2023-04-03T09:30:14;7.20;99.90
17385;DHT22;8810;48.680;8.894;2023-04-03T09:32:44;7.30;99.90
17385;DHT22;8810;48.680;8.894;2023-04-03T09:35:18;7.30;99.90
17385;DHT22;8810;48.680;8.894;2023-04-03T09:37:48;7.30;99.90
17385;DHT22;8810;48.680;8.894;2023-04-03T09:40:33;7.20;99.90
17385;DHT22;8810;48.680;8.894;2023-04-03T09:43:03;7.10;99.90
17385;DHT22;8810;48.680;8.894;2023-04-03T09:45:47;7.00;99.90
17385;DHT22;8810;48.680;8.894;2023-04-03T09:48:17;6.90;99.90
17385;DHT22;8810;48.680;8.894;2023-04-03T09:50:56;6.80;99.90
17385;DHT22;8810;48.680;8.894;2023-04-03T09:53:33;6.70;99.90
17385;DHT22;8810;48.680;8.894;2023-04-03T09:56:02;6.60;99.90
17385;DHT22;8810;48.680;8.894;2023-04-03T09:58:31;6.60;99.90
17385;DHT22;8810;48.680;8.894;2023-04-03T10:01:02;6.50;99.90
17385;DHT22;8810;48.680;8.894;2023-04-03T10:03:31;6.50;99.90
17385;DHT22;8810;48.680;8.894;2023-04-03T10:05:59;6.40;99.90
17385;DHT22;8810;48.680;8.894;2023-04-03T10:08:29;6.20;99.90
17385;DHT22;8810;48.680;8.894;2023-04-03T10:11:08;6.20;99.90
17385;DHT22;8810;48.680;8.894;2023-04-03T10:13:37;6.10;99.90
17385;DHT22;8810;48.680;8.894;2023-04-03T10:16:18;6.10;99.90
17385;DHT22;8810;48.680;8.894;2023-04-03T10:18:48;6.10;99.90
17385;DHT22;8810;48.680;8.894;2023-04-03T10:21:32;6.00;99.90
17385;DHT22;8810;48.680;8.894;2023-04-03T10:24:08;6.10;99.90
17385;DHT22;8810;48.680;8.894;2023-04-03T10:26:45;6.10;99.90
17385;DHT22;8810;48.680;8.894;2023-04-03T10:29:22;6.00;99.90
17385;DHT22;8810;48.680;8.894;2023-04-03T10:31:58;6.00;99.90
17385;DHT22;8810;48.680;8.894;2023-04-03T10:34:29;6.10;99.90
17385;DHT22;8810;48.680;8.894;2023-04-03T10:37:04;6.20;99.90
17385;DHT22;8810;48.680;8.894;2023-04-03T10:39:36;6.30;99.90
17385;DHT22;8810;48.680;8.894;2023-04-03T10:42:11;6.40;99.90
17385;DHT22;8810;48.680;8.894;2023-04-03T10:44:52;6.50;99.90
17385;DHT22;8810;48.680;8.894;2023-04-03T10:47:29;6.50;99.90
17385;DHT22;8810;48.680;8.894;2023-04-03T10:50:20;6.70;99.90
17385;DHT22;8810;48.680;8.894;2023-04-03T10:52:53;6.80;99.90
17385;DHT22;8810;48.680;8.894;2023-04-03T10:55:32;7.00;99.90
17385;DHT22;8810;48.680;8.894;2023-04-03T10:58:01;7.00;99.90
17385;DHT22;8810;48.680;8.894;2023-04-03T11:00:35;7.10;99.90
17385;DHT22;8810;48.680;8.894;2023-04-03T11:03:07;7.00;99.90
17385;DHT22;8810;48.680;8.894;2023-04-03T11:05:40;7.00;99.90
17385;DHT22;8810;48.680;8.894;2023-04-03T11:08:15;6.90;99.90
17385;DHT22;8810;48.680;8.894;2023-04-03T11:10:46;6.80;99.90
17385;DHT22;8810;48.680;8.894;2023-04-03T11:13:17;6.90;99.90
17385;DHT22;8810;48.680;8.894;2023-04-03T11:15:46;6.90;99.90
17385;DHT22;8810;48.680;8.894;2023-04-03T11:18:18;7.10;99.90
17385;DHT22;8810;48.680;8.894;2023-04-03T11:20:53;7.20;99.90
17385;DHT22;8810;48.680;8.894;2023-04-03T11:23:23;7.20;99.90
17385;DHT22;8810;48.680;8.894;2023-04-03T11:25:56;7.20;99.90
17385;DHT22;8810;48.680;8.894;2023-04-03T11:28:26;7.10;99.90
17385;DHT22;8810;48.680;8.894;2023-04-03T11:31:00;7.00;99.90
17385;DHT22;8810;48.680;8.894;2023-04-03T11:33:39;6.90;99.90
17385;DHT22;8810;48.680;8.894;2023-04-03T11:36:10;6.90;99.90
17385;DHT22;8810;48.680;8.894;2023-04-03T11:38:43;6.90;99.90
17385;DHT22;8810;48.680;8.894;2023-04-03T11:41:13;6.90;99.90
17385;DHT22;8810;48.680;8.894;2023-04-03T11:43:43;6.90;99.90
17385;DHT22;8810;48.680;8.894;2023-04-03T11:46:22;6.80;99.90
17385;DHT22;8810;48.680;8.894;2023-04-03T11:48:53;6.90;99.90
17385;DHT22;8810;48.680;8.894;2023-04-03T11:51:42;6.90;99.90
17385;DHT22;8810;48.680;8.894;2023-04-03T11:54:44;6.80;99.90
17385;DHT22;8810;48.680;8.894;2023-04-03T11:57:49;6.70;99.90
17385;DHT22;8810;48.680;8.894;2023-04-03T12:00:55;6.70;99.90
17385;DHT22;8810;48.680;8.894;2023-04-03T12:03:58;6.70;99.90
17385;DHT22;8810;48.680;8.894;2023-04-03T12:07:02;6.60;99.90
17385;DHT22;8810;48.680;8.894;2023-04-03T12:09:58;6.60;99.90
17385;DHT22;8810;48.680;8.894;2023-04-03T12:12:35;6.60;99.90
17385;DHT22;8810;48.680;8.894;2023-04-03T12:15:21;6.70;99.90
17385;DHT22;8810;48.680;8.894;2023-04-03T12:17:49;6.70;99.90
17385;DHT22;8810;48.680;8.894;2023-04-03T12:20:56;6.70;99.90
17385;DHT22;8810;48.680;8.894;2023-04-03T12:23:26;6.70;99.90
17385;DHT22;8810;48.680;8.894;2023-04-03T12:26:00;6.70;99.90
17385;DHT22;8810;48.680;8.894;2023-04-03T12:28:36;6.80;99.90
17385;DHT22;8810;48.680;8.894;2023-04-03T12:31:05;6.80;99.90
17385;DHT22;8810;48.680;8.894;2023-04-03T12:33:44;6.70;99.90
17385;DHT22;8810;48.680;8.894;2023-04-03T12:36:25;6.70;99.90
17385;DHT22;8810;48.680;8.894;2023-04-03T12:39:05;6.70;99.90
17385;DHT22;8810;48.680;8.894;2023-04-03T12:41:43;6.70;99.90
17385;DHT22;8810;48.680;8.894;2023-04-03T12:47:20;6.80;99.90
17385;DHT22;8810;48.680;8.894;2023-04-03T12:49:49;6.80;99.90
17385;DHT22;8810;48.680;8.894;2023-04-03T12:52:22;6.80;99.90
17385;DHT22;8810;48.680;8.894;2023-04-03T12:54:51;6.80;99.90
17385;DHT22;8810;48.680;8.894;2023-04-03T12:57:20;6.80;99.90
17385;DHT22;8810;48.680;8.894;2023-04-03T12:59:47;6.80;99.90
17385;DHT22;8810;48.680;8.894;2023-04-03T13:02:21;6.80;99.90
17385;DHT22;8810;48.680;8.894;2023-04-03T13:04:50;6.80;99.90
17385;DHT22;8810;48.680;8.894;2023-04-03T13:07:21;6.80;99.90
17385;DHT22;8810;48.680;8.894;2023-04-03T13:10:03;6.80;99.90
17385;DHT22;8810;48.680;8.894;2023-04-03T13:12:32;6.70;99.90
17385;DHT22;8810;48.680;8.894;2023-04-03T13:15:00;6.80;99.90
17385;DHT22;8810;48.680;8.894;2023-04-03T13:17:30;6.80;99.90
17385;DHT22;8810;48.680;8.894;2023-04-03T13:20:10;6.80;99.90
17385;DHT22;8810;48.680;8.894;2023-04-03T13:22:42;6.90;99.90
17385;DHT22;8810;48.680;8.894;2023-04-03T13:25:13;7.00;99.90
17385;DHT22;8810;48.680;8.894;2023-04-03T13:27:42;7.10;99.90
17385;DHT22;8810;48.680;8.894;2023-04-03T13:30:21;7.30;99.90
17385;DHT22;8810;48.680;8.894;2023-04-03T13:32:49;7.60;99.90
17385;DHT22;8810;48.680;8.894;2023-04-03T13:35:28;7.80;99.90
17385;DHT22;8810;48.680;8.894;2023-04-03T13:37:59;7.80;99.90
17385;DHT22;8810;48.680;8.894;2023-04-03T13:40:26;7.80;99.90
17385;DHT22;8810;48.680;8.894;2023-04-03T13:43:03;7.60;99.90
17385;DHT22;8810;48.680;8.894;2023-04-03T13:45:31;7.50;99.90
17385;DHT22;8810;48.680;8.894;2023-04-03T13:48:14;7.40;99.90
17385;DHT22;8810;48.680;8.894;2023-04-03T13:50:55;7.40;99.90
17385;DHT22;8810;48.680;8.894;2023-04-03T13:53:25;7.30;99.90
17385;DHT22;8810;48.680;8.894;2023-04-03T13:55:59;7.20;99.90
17385;DHT22;8810;48.680;8.894;2023-04-03T13:58:27;7.30;99.90
17385;DHT22;8810;48.680;8.894;2023-04-03T14:00:59;7.40;99.90
17385;DHT22;8810;48.680;8.894;2023-04-03T14:03:40;7.60;99.90
17385;DHT22;8810;48.680;8.894;2023-04-03T14:06:10;7.80;99.90
17385;DHT22;8810;48.680;8.894;2023-04-03T14:08:38;8.00;99.90
17385;DHT22;8810;48.680;8.894;2023-04-03T14:11:11;8.20;99.90
17385;DHT22;8810;48.680;8.894;2023-04-03T14:13:39;8.20;99.90
17385;DHT22;8810;48.680;8.894;2023-04-03T14:16:06;8.30;99.90
17385;DHT22;8810;48.680;8.894;2023-04-03T14:18:33;8.10;99.90
17385;DHT22;8810;48.680;8.894;2023-04-03T14:20:59;8.00;99.90
17385;DHT22;8810;48.680;8.894;2023-04-03T14:23:26;8.00;99.90
17385;DHT22;8810;48.680;8.894;2023-04-03T14:25:55;7.90;99.90
17385;DHT22;8810;48.680;8.894;2023-04-03T14:28:22;7.80;99.90
17385;DHT22;8810;48.680;8.894;2023-04-03T14:30:50;7.70;99.90
17385;DHT22;8810;48.680;8.894;2023-04-03T14:33:19;7.60;99.90
17385;DHT22;8810;48.680;8.894;2023-04-03T14:35:47;7.60;99.90
17385;DHT22;8810;48.680;8.894;2023-04-03T14:38:23;7.60;99.90
17385;DHT22;8810;48.680;8.894;2023-04-03T14:40:50;7.50;99.90
17385;DHT22;8810;48.680;8.894;2023-04-03T14:43:19;7.40;99.90
17385;DHT22;8810;48.680;8.894;2023-04-03T14:45:46;7.30;99.90
17385;DHT22;8810;48.680;8.894;2023-04-03T14:48:18;7.30;99.90
17385;DHT22;8810;48.680;8.894;2023-04-03T14:50:46;7.40;99.90
17385;DHT22;8810;48.680;8.894;2023-04-03T14:53:14;7.40;99.90
17385;DHT22;8810;48.680;8.894;2023-04-03T14:55:43;7.40;99.90
17385;DHT22;8810;48.680;8.894;2023-04-03T14:58:13;7.40;99.90
17385;DHT22;8810;48.680;8.894;2023-04-03T15:00:42;7.40;99.90
17385;DHT22;8810;48.680;8.894;2023-04-03T15:03:13;7.40;99.90
17385;DHT22;8810;48.680;8.894;2023-04-03T15:05:42;7.40;99.90
17385;DHT22;8810;48.680;8.894;2023-04-03T15:08:18;7.40;99.90
17385;DHT22;8810;48.680;8.894;2023-04-03T15:10:46;7.40;99.90
17385;DHT22;8810;48.680;8.894;2023-04-03T15:13:13;7.40;99.90
17385;DHT22;8810;48.680;8.894;2023-04-03T15:15:41;7.30;99.90
17385;DHT22;8810;48.680;8.894;2023-04-03T15:18:13;7.20;99.90
17385;DHT22;8810;48.680;8.894;2023-04-03T15:20:41;7.20;99.90
17385;DHT22;8810;48.680;8.894;2023-04-03T15:23:10;7.30;99.90
17385;DHT22;8810;48.680;8.894;2023-04-03T15:25:37;7.30;99.90
17385;DHT22;8810;48.680;8.894;2023-04-03T15:28:05;7.20;99.90
17385;DHT22;8810;48.680;8.894;2023-04-03T15:30:33;7.20;99.90
17385;DHT22;8810;48.680;8.894;2023-04-03T15:33:04;7.30;99.90
17385;DHT22;8810;48.680;8.894;2023-04-03T15:35:31;7.50;99.90
17385;DHT22;8810;48.680;8.894;2023-04-03T15:37:58;7.80;99.90
17385;DHT22;8810;48.680;8.894;2023-04-03T15:40:25;8.20;99.90
17385;DHT22;8810;48.680;8.894;2023-04-03T15:42:52;8.60;99.90
17385;DHT22;8810;48.680;8.894;2023-04-03T15:45:19;8.80;99.90
17385;DHT22;8810;48.680;8.894;2023-04-03T15:47:46;8.90;99.90
17385;DHT22;8810;48.680;8.894;2023-04-03T15:50:14;8.70;99.90
17385;DHT22;8810;48.680;8.894;2023-04-03T15:52:41;8.50;99.60
17385;DHT22;8810;48.680;8.894;2023-04-03T15:55:09;8.30;99.80
17385;DHT22;8810;48.680;8.894;2023-04-03T15:57:36;8.10;99.90
17385;DHT22;8810;48.680;8.894;2023-04-03T16:00:04;7.80;99.80
17385;DHT22;8810;48.680;8.894;2023-04-03T16:02:31;7.70;99.90
17385;DHT22;8810;48.680;8.894;2023-04-03T16:04:59;7.50;99.90
17385;DHT22;8810;48.680;8.894;2023-04-03T16:07:27;7.40;99.90
17385;DHT22;8810;48.680;8.894;2023-04-03T16:09:54;7.30;99.90
17385;DHT22;8810;48.680;8.894;2023-04-03T16:12:21;7.20;99.90
17385;DHT22;8810;48.680;8.894;2023-04-03T16:14:48;7.20;99.90
17385;DHT22;8810;48.680;8.894;2023-04-03T16:17:14;7.20;99.90
17385;DHT22;8810;48.680;8.894;2023-04-03T16:19:41;7.30;99.90
17385;DHT22;8810;48.680;8.894;2023-04-03T16:22:08;7.20;99.90
17385;DHT22;8810;48.680;8.894;2023-04-03T16:24:36;7.10;99.90
17385;DHT22;8810;48.680;8.894;2023-04-03T16:27:03;7.10;99.90